CYDP/YDP METAR and TAF weather

Enter ICAO airport designator
Station Type Date Time Source
CYDP METAR 2021/08/01 17:08 UTC NOAA

CYDP 011708Z 29013KT 15SM -SHRA BKN027 OVC035 14/09 A2938 RMK SC7SC1 SLP949 DENSITY ALT 500FT


Station Type Date Time Source
CYDP Decoded METAR 2021/08/01 17:08 UTC NOAA

Nain, Nfld, Canada (CYDP) 56-33N 061-41W 7M
Aug 01, 2021 - 01:08 PM EDT / 2021.08.01 1708 UTC
Wind: from the WNW (290 degrees) at 15 MPH (13 KT):0
Visibility: 15 mile(s):0
Sky conditions: overcast
Weather: light rain showers
Temperature: 57 F (14 C)
Dew Point: 48 F (9 C)
Relative Humidity: 71%
Pressure (altimeter): 29.38 in. Hg (994 hPa)
ob: CYDP 011708Z 29013KT 15SM -SHRA BKN027 OVC035 14/09 A2938 RMK SC7SC1 SLP949 DENSITY ALT 500FT
cycle: 17

Station Type Date Time Source
CYDP TAF 2021/08/01 14:00 UTC NOAA

TAF CYDP 011338Z 0114/0123 32008KT P6SM FEW020 OVC025
TEMPO 0114/0123 OVC020
RMK NXT FCST BY 012000Z

Example: see airport list